Time;durP1;ratioP1;P1;durP2;ratioP2;P2;SDS_P1;SDS_P2;PMS_P1;PMS_P2;Temp;Humidity;BMP_temperature;BMP_pressure;BME280_temperature;BME280_humidity;BME280_pressure;Samples;Min_cycle;Max_cycle;Signal;HPM_P1;HPM_P2
2021/12/28 00:01:04;;;;;;;;;;;8.70;99.90;;;;;;4276903;33;37004;-87
2021/12/28 00:03:37;;;;;;;;;;;8.70;99.90;;;;;;4264680;33;32965;-88
2021/12/28 00:06:10;;;;;;;;;;;8.70;99.90;;;;;;4290009;33;33275;-87
2021/12/28 00:08:43;;;;;;;;;;;8.70;99.90;;;;;;4265103;33;28222;-87
2021/12/28 00:11:11;;;;;;;;;;;8.70;99.90;;;;;;4276829;33;21082;-87
2021/12/28 00:13:41;;;;;;;;;;;8.80;99.90;;;;;;4289075;33;33735;-87
2021/12/28 00:18:40;;;;;;;;;;;8.80;99.90;;;;;;4289308;33;20049;-87
2021/12/28 00:21:08;;;;;;;;;;;8.80;99.90;;;;;;4264426;33;21490;-87
2021/12/28 00:23:40;;;;;;;;;;;8.80;99.90;;;;;;4276531;33;29515;-87
2021/12/28 00:26:11;;;;;;;;;;;8.80;99.90;;;;;;4264873;33;23171;-86
2021/12/28 00:28:42;;;;;;;;;;;8.80;99.90;;;;;;4276138;33;32712;-86
2021/12/28 00:31:15;;;;;;;;;;;8.80;99.90;;;;;;4276007;33;42086;-87
2021/12/28 00:33:52;;;;;;;;;;;8.80;99.90;;;;;;4277104;33;20417;-88
2021/12/28 00:36:25;;;;;;;;;;;8.80;99.90;;;;;;4289079;33;37439;-87
2021/12/28 00:38:56;;;;;;;;;;;8.80;99.90;;;;;;4264410;33;30104;-87
2021/12/28 00:41:26;;;;;;;;;;;8.80;99.90;;;;;;4276504;33;30906;-87
2021/12/28 00:43:53;;;;;;;;;;;8.80;99.90;;;;;;4276951;33;20014;-87
2021/12/28 00:46:27;;;;;;;;;;;8.90;99.90;;;;;;4276051;33;22248;-86
2021/12/28 00:48:59;;;;;;;;;;;8.90;99.90;;;;;;4276855;33;19995;-87
2021/12/28 00:51:29;;;;;;;;;;;8.90;99.90;;;;;;4275535;33;34691;-88
2021/12/28 00:54:01;;;;;;;;;;;8.90;99.90;;;;;;4276629;33;26599;-87
2021/12/28 00:56:32;;;;;;;;;;;8.90;99.90;;;;;;4263797;33;34162;-87
2021/12/28 00:59:02;;;;;;;;;;;8.90;99.90;;;;;;4264501;33;20116;-87
2021/12/28 01:01:32;;;;;;;;;;;8.90;99.90;;;;;;4276194;33;20067;-87
2021/12/28 01:04:08;;;;;;;;;;;8.90;99.90;;;;;;4264042;33;40627;-88
2021/12/28 01:06:41;;;;;;;;;;;8.90;99.90;;;;;;4264083;33;29221;-88
2021/12/28 01:09:09;;;;;;;;;;;8.90;99.90;;;;;;4264264;33;21547;-87
2021/12/28 01:11:36;;;;;;;;;;;8.90;99.90;;;;;;4275762;33;22904;-87
2021/12/28 01:14:09;;;;;;;;;;;8.90;99.90;;;;;;4275840;33;29823;-87
2021/12/28 01:16:39;;;;;;;;;;;8.90;99.90;;;;;;4263886;33;41063;-86
2021/12/28 01:19:08;;;;;;;;;;;8.90;99.90;;;;;;4288483;33;28556;-86
2021/12/28 01:21:40;;;;;;;;;;;8.90;99.90;;;;;;4275440;33;37807;-86
2021/12/28 01:24:10;;;;;;;;;;;8.90;99.90;;;;;;4263597;33;24508;-86
2021/12/28 01:26:43;;;;;;;;;;;8.90;99.90;;;;;;4274854;33;35503;-85
2021/12/28 01:29:16;;;;;;;;;;;8.90;99.90;;;;;;4289359;33;20078;-85
2021/12/28 01:31:44;;;;;;;;;;;9.00;99.90;;;;;;4288551;33;31683;-86
2021/12/28 01:34:14;;;;;;;;;;;9.00;99.90;;;;;;4275047;33;39476;-87
2021/12/28 01:36:44;;;;;;;;;;;9.00;99.90;;;;;;4275336;33;23101;-86
2021/12/28 01:39:16;;;;;;;;;;;9.00;99.90;;;;;;4263474;33;35221;-87
2021/12/28 01:41:47;;;;;;;;;;;9.00;99.90;;;;;;4274653;33;30667;-87
2021/12/28 01:44:20;;;;;;;;;;;9.00;99.90;;;;;;4275379;33;20821;-87
2021/12/28 01:46:55;;;;;;;;;;;9.00;99.90;;;;;;4264260;33;20420;-86
2021/12/28 01:49:25;;;;;;;;;;;9.00;99.90;;;;;;4275349;33;35024;-86
2021/12/28 01:51:55;;;;;;;;;;;9.00;99.90;;;;;;4275701;33;20050;-87
2021/12/28 01:54:33;;;;;;;;;;;9.00;99.90;;;;;;4263544;33;37870;-87
2021/12/28 01:57:03;;;;;;;;;;;9.00;99.90;;;;;;4274569;33;28801;-86
2021/12/28 01:59:32;;;;;;;;;;;9.00;99.90;;;;;;4274987;33;29317;-86
2021/12/28 02:02:08;;;;;;;;;;;9.00;99.90;;;;;;4275556;33;20329;-86
2021/12/28 02:04:41;;;;;;;;;;;9.00;99.90;;;;;;4288130;33;27426;-87
2021/12/28 02:07:08;;;;;;;;;;;9.00;99.90;;;;;;4276095;33;20061;-86
2021/12/28 02:09:36;;;;;;;;;;;9.00;99.90;;;;;;4288106;33;20916;-86
2021/12/28 02:12:04;;;;;;;;;;;9.00;99.90;;;;;;4262586;33;36073;-86
2021/12/28 02:14:44;;;;;;;;;;;9.00;99.90;;;;;;4287898;33;30485;-86
2021/12/28 02:17:14;;;;;;;;;;;9.00;99.90;;;;;;4275074;33;31275;-86
2021/12/28 02:19:46;;;;;;;;;;;9.00;99.90;;;;;;4262319;33;45514;-85
2021/12/28 02:22:14;;;;;;;;;;;9.00;99.90;;;;;;4274920;33;26043;-86
2021/12/28 02:24:46;;;;;;;;;;;9.00;99.90;;;;;;4263437;33;20010;-86
2021/12/28 02:27:21;;;;;;;;;;;9.00;99.90;;;;;;4276058;33;20055;-86
2021/12/28 02:29:51;;;;;;;;;;;9.00;99.90;;;;;;4262658;33;33489;-86
2021/12/28 02:32:23;;;;;;;;;;;9.00;99.90;;;;;;4274911;33;23470;-86
2021/12/28 02:34:57;;;;;;;;;;;9.00;99.90;;;;;;4275596;33;20033;-87
2021/12/28 02:37:39;;;;;;;;;;;9.00;99.90;;;;;;4275009;33;20054;-86
2021/12/28 02:40:07;;;;;;;;;;;9.00;99.90;;;;;;4287658;33;37869;-86
2021/12/28 02:42:40;;;;;;;;;;;9.00;99.90;;;;;;4262512;33;33359;-86
2021/12/28 02:45:27;;;;;;;;;;;9.00;99.90;;;;;;4263228;33;20459;-86
2021/12/28 02:47:55;;;;;;;;;;;9.00;99.90;;;;;;4257979;33;24599;-87
2021/12/28 02:50:26;;;;;;;;;;;9.10;99.90;;;;;;4262303;33;37779;-87
2021/12/28 02:52:53;;;;;;;;;;;9.00;99.90;;;;;;4262540;33;24228;-86
2021/12/28 02:55:26;;;;;;;;;;;9.00;99.90;;;;;;4274342;33;33291;-87
2021/12/28 02:57:58;;;;;;;;;;;9.00;99.90;;;;;;4287952;33;20063;-86
2021/12/28 03:00:37;;;;;;;;;;;9.00;99.90;;;;;;4275214;33;20018;-86
2021/12/28 03:03:13;;;;;;;;;;;9.00;99.90;;;;;;4274878;33;20002;-86
2021/12/28 03:05:42;;;;;;;;;;;9.00;99.90;;;;;;4275464;33;20028;-86
2021/12/28 03:08:16;;;;;;;;;;;9.00;99.90;;;;;;4263398;33;20076;-86
2021/12/28 03:10:48;;;;;;;;;;;9.00;99.90;;;;;;4266057;33;20460;-86
2021/12/28 03:13:24;;;;;;;;;;;9.00;99.90;;;;;;4265105;33;32424;-85
2021/12/28 03:15:51;;;;;;;;;;;9.00;99.90;;;;;;4277410;33;32896;-87
2021/12/28 03:18:19;;;;;;;;;;;9.00;99.90;;;;;;4264631;33;46892;-87
2021/12/28 03:20:46;;;;;;;;;;;9.00;99.90;;;;;;4277228;33;43694;-86
2021/12/28 03:23:17;;;;;;;;;;;9.00;99.90;;;;;;4276762;33;42143;-87
2021/12/28 03:25:47;;;;;;;;;;;9.00;99.90;;;;;;4265360;33;20022;-87
2021/12/28 03:28:18;;;;;;;;;;;9.00;99.90;;;;;;4277028;33;30017;-86
2021/12/28 03:30:56;;;;;;;;;;;9.00;99.90;;;;;;4265738;33;19999;-87
2021/12/28 03:33:24;;;;;;;;;;;9.00;99.90;;;;;;4289854;33;42028;-86
2021/12/28 03:35:51;;;;;;;;;;;9.00;99.90;;;;;;4290913;33;20010;-86
2021/12/28 03:38:21;;;;;;;;;;;9.00;99.90;;;;;;4264755;33;43257;-86
2021/12/28 03:40:49;;;;;;;;;;;9.00;99.90;;;;;;4276945;33;40851;-87
2021/12/28 03:43:17;;;;;;;;;;;9.00;99.90;;;;;;4289867;33;36699;-87
2021/12/28 03:45:47;;;;;;;;;;;9.00;99.90;;;;;;4278244;33;20412;-86
2021/12/28 03:48:20;;;;;;;;;;;9.00;99.90;;;;;;4265027;33;32708;-86
2021/12/28 03:50:47;;;;;;;;;;;9.10;99.90;;;;;;4264776;33;25569;-86
2021/12/28 03:53:14;;;;;;;;;;;9.00;99.90;;;;;;4265638;33;20011;-87
2021/12/28 03:55:44;;;;;;;;;;;9.00;99.90;;;;;;4264358;33;40785;-86
2021/12/28 03:58:17;;;;;;;;;;;9.00;99.90;;;;;;4289476;33;29692;-87
2021/12/28 04:00:53;;;;;;;;;;;9.00;99.90;;;;;;4277720;33;20015;-86
2021/12/28 04:03:26;;;;;;;;;;;9.00;99.90;;;;;;4290289;33;20003;-86
2021/12/28 04:05:55;;;;;;;;;;;9.00;99.90;;;;;;4276720;33;20007;-86
2021/12/28 04:08:28;;;;;;;;;;;9.00;99.90;;;;;;4289020;33;33171;-87
2021/12/28 04:11:12;;;;;;;;;;;9.00;99.90;;;;;;4276059;33;34604;-87
2021/12/28 04:13:39;;;;;;;;;;;9.00;99.90;;;;;;4264683;33;27870;-87
2021/12/28 04:16:09;;;;;;;;;;;9.00;99.90;;;;;;4264253;33;37195;-86
2021/12/28 04:18:42;;;;;;;;;;;9.00;99.90;;;;;;4276776;33;27571;-87
2021/12/28 04:21:12;;;;;;;;;;;9.00;99.90;;;;;;4263693;33;45018;-87
2021/12/28 04:23:43;;;;;;;;;;;9.10;99.90;;;;;;4265248;33;20237;-87
2021/12/28 04:26:11;;;;;;;;;;;9.00;99.90;;;;;;4265493;33;20055;-87
2021/12/28 04:28:40;;;;;;;;;;;9.00;99.90;;;;;;4264154;33;30654;-87
2021/12/28 04:31:10;;;;;;;;;;;9.00;99.90;;;;;;4276638;33;20014;-86
2021/12/28 04:33:40;;;;;;;;;;;9.00;99.90;;;;;;4264292;33;40789;-87
2021/12/28 04:36:13;;;;;;;;;;;9.10;99.90;;;;;;4277060;33;20058;-87
2021/12/28 04:38:45;;;;;;;;;;;9.00;99.90;;;;;;4264446;33;31768;-88
2021/12/28 04:41:16;;;;;;;;;;;9.00;99.90;;;;;;4276503;33;32893;-87
2021/12/28 04:43:45;;;;;;;;;;;9.00;99.90;;;;;;4264995;33;20009;-87
2021/12/28 04:46:12;;;;;;;;;;;9.00;99.90;;;;;;4264916;33;20409;-86
2021/12/28 04:48:45;;;;;;;;;;;9.00;99.90;;;;;;4277001;33;20085;-87
2021/12/28 04:51:17;;;;;;;;;;;9.00;99.90;;;;;;4276883;33;20010;-87
2021/12/28 04:53:49;;;;;;;;;;;9.00;99.90;;;;;;4263889;33;35641;-87
2021/12/28 04:56:16;;;;;;;;;;;9.00;99.90;;;;;;4265110;33;20017;-87
2021/12/28 04:58:49;;;;;;;;;;;9.00;99.90;;;;;;4276802;33;20025;-87
2021/12/28 05:01:16;;;;;;;;;;;9.00;99.90;;;;;;4288899;33;26847;-87
2021/12/28 05:03:43;;;;;;;;;;;9.00;99.90;;;;;;4276802;33;20423;-87
2021/12/28 05:06:19;;;;;;;;;;;9.00;99.90;;;;;;4277273;33;19999;-87
2021/12/28 05:08:49;;;;;;;;;;;9.00;99.90;;;;;;4276238;33;20018;-87
2021/12/28 05:11:16;;;;;;;;;;;9.00;99.90;;;;;;4263719;33;39699;-87
2021/12/28 05:13:44;;;;;;;;;;;9.00;99.90;;;;;;4275646;33;30566;-87
2021/12/28 05:16:15;;;;;;;;;;;9.00;99.90;;;;;;4275560;33;36581;-87
2021/12/28 05:18:45;;;;;;;;;;;9.00;99.90;;;;;;4288186;33;31493;-87
2021/12/28 05:21:12;;;;;;;;;;;9.00;99.90;;;;;;4276097;33;24283;-87
2021/12/28 05:23:39;;;;;;;;;;;9.00;99.90;;;;;;4263365;33;36370;-87
2021/12/28 05:26:06;;;;;;;;;;;9.00;99.90;;;;;;4264250;33;20018;-87
2021/12/28 05:28:39;;;;;;;;;;;9.00;99.90;;;;;;4276030;33;20405;-87
2021/12/28 05:31:10;;;;;;;;;;;9.00;99.90;;;;;;4276423;33;20021;-88
2021/12/28 05:33:40;;;;;;;;;;;9.00;99.90;;;;;;4263392;33;34569;-87
2021/12/28 05:36:13;;;;;;;;;;;9.00;99.90;;;;;;4275091;33;37504;-87
2021/12/28 05:38:40;;;;;;;;;;;9.00;99.90;;;;;;4263380;33;31029;-87
2021/12/28 05:41:11;;;;;;;;;;;9.00;99.90;;;;;;4275465;33;20010;-87
2021/12/28 05:43:41;;;;;;;;;;;9.00;99.90;;;;;;4264052;33;20021;-87
2021/12/28 05:46:13;;;;;;;;;;;9.00;99.90;;;;;;4264079;33;20018;-87
2021/12/28 05:48:47;;;;;;;;;;;9.00;99.90;;;;;;4288733;33;21320;-87
2021/12/28 05:51:17;;;;;;;;;;;9.00;99.90;;;;;;4263806;33;20021;-87
2021/12/28 05:53:44;;;;;;;;;;;9.00;99.90;;;;;;4275039;33;42037;-87
2021/12/28 05:56:12;;;;;;;;;;;9.00;99.90;;;;;;4275530;33;20018;-87
2021/12/28 05:58:39;;;;;;;;;;;9.00;99.90;;;;;;4262933;33;28164;-87
2021/12/28 06:01:12;;;;;;;;;;;9.00;99.90;;;;;;4263137;33;31768;-87
2021/12/28 06:03:40;;;;;;;;;;;9.00;99.90;;;;;;4275416;33;20010;-87
2021/12/28 06:06:10;;;;;;;;;;;9.00;99.90;;;;;;4262924;33;25942;-87
2021/12/28 06:08:37;;;;;;;;;;;9.00;99.90;;;;;;4274505;33;30404;-88
2021/12/28 06:11:11;;;;;;;;;;;9.00;99.90;;;;;;4275697;33;20008;-87
2021/12/28 06:13:44;;;;;;;;;;;9.00;99.90;;;;;;4276073;33;20018;-87
2021/12/28 06:16:14;;;;;;;;;;;9.00;99.90;;;;;;4275560;33;20083;-87
2021/12/28 06:18:48;;;;;;;;;;;9.00;99.90;;;;;;4275999;33;20115;-87
2021/12/28 06:21:18;;;;;;;;;;;9.00;99.90;;;;;;4275417;33;20018;-87
2021/12/28 06:23:50;;;;;;;;;;;9.00;99.90;;;;;;4263096;33;24750;-87
2021/12/28 06:26:20;;;;;;;;;;;9.00;99.90;;;;;;4275587;33;20046;-87
2021/12/28 06:28:56;;;;;;;;;;;9.00;99.90;;;;;;4275460;33;20002;-87
2021/12/28 06:31:28;;;;;;;;;;;9.00;99.90;;;;;;4263122;33;25025;-87
2021/12/28 06:33:59;;;;;;;;;;;9.00;99.90;;;;;;4274709;33;39625;-87
2021/12/28 06:36:32;;;;;;;;;;;9.10;99.90;;;;;;4263774;33;20363;-88
2021/12/28 06:39:05;;;;;;;;;;;9.00;99.90;;;;;;4263513;33;20017;-88
2021/12/28 06:41:41;;;;;;;;;;;9.00;99.90;;;;;;4275562;33;20408;-87
2021/12/28 06:44:14;;;;;;;;;;;9.00;99.90;;;;;;4273838;33;33639;-87
2021/12/28 06:46:46;;;;;;;;;;;9.00;99.90;;;;;;4275064;33;31560;-87
2021/12/28 06:49:16;;;;;;;;;;;9.00;99.90;;;;;;4275042;33;26577;-87
2021/12/28 06:51:54;;;;;;;;;;;9.00;99.90;;;;;;4263741;33;19998;-88
2021/12/28 06:54:36;;;;;;;;;;;9.00;99.90;;;;;;4274068;33;33804;-87
2021/12/28 06:57:07;;;;;;;;;;;9.00;99.90;;;;;;4263769;33;20053;-87
2021/12/28 06:59:35;;;;;;;;;;;9.10;99.90;;;;;;4262352;33;38827;-87
2021/12/28 07:02:02;;;;;;;;;;;9.00;99.90;;;;;;4286773;33;37064;-87
2021/12/28 07:04:30;;;;;;;;;;;9.00;99.90;;;;;;4287695;33;31945;-87
2021/12/28 07:06:57;;;;;;;;;;;9.00;99.90;;;;;;4274510;33;37450;-88
2021/12/28 07:09:24;;;;;;;;;;;9.00;99.90;;;;;;4287749;33;23222;-88
2021/12/28 07:11:51;;;;;;;;;;;9.00;99.90;;;;;;4274712;33;37404;-88
2021/12/28 07:14:18;;;;;;;;;;;9.10;99.90;;;;;;4274484;33;20003;-87
2021/12/28 07:16:48;;;;;;;;;;;9.00;99.90;;;;;;4263345;33;20003;-87
2021/12/28 07:19:15;;;;;;;;;;;9.00;99.90;;;;;;4275260;33;20065;-87
2021/12/28 07:21:48;;;;;;;;;;;9.10;99.90;;;;;;4288195;33;20029;-87
2021/12/28 07:24:16;;;;;;;;;;;9.10;99.90;;;;;;4263292;33;20050;-88
2021/12/28 07:26:43;;;;;;;;;;;9.00;99.90;;;;;;4262422;33;29259;-87
2021/12/28 07:29:11;;;;;;;;;;;9.00;99.90;;;;;;4263454;33;19994;-88
2021/12/28 07:31:39;;;;;;;;;;;9.00;99.90;;;;;;4263457;33;20030;-87
2021/12/28 07:34:11;;;;;;;;;;;9.10;99.90;;;;;;4274704;33;20051;-87
2021/12/28 07:36:47;;;;;;;;;;;9.10;99.90;;;;;;4262396;33;31385;-88
2021/12/28 07:39:16;;;;;;;;;;;9.10;99.90;;;;;;4273945;33;34609;-87
2021/12/28 07:41:52;;;;;;;;;;;9.10;99.90;;;;;;4261889;33;38642;-87
2021/12/28 07:44:23;;;;;;;;;;;9.10;99.90;;;;;;4275232;33;20023;-87
2021/12/28 07:46:50;;;;;;;;;;;9.10;99.90;;;;;;4274136;33;36085;-88
2021/12/28 07:49:20;;;;;;;;;;;9.10;99.90;;;;;;4262274;33;28972;-86
2021/12/28 07:51:52;;;;;;;;;;;9.10;99.90;;;;;;4262139;33;37079;-87
2021/12/28 07:54:22;;;;;;;;;;;9.10;99.90;;;;;;4273562;33;37710;-87
2021/12/28 07:56:49;;;;;;;;;;;9.10;99.90;;;;;;4264131;33;37879;-86
2021/12/28 07:59:16;;;;;;;;;;;9.10;99.90;;;;;;4289637;33;34267;-87
2021/12/28 08:01:43;;;;;;;;;;;9.10;99.90;;;;;;4273754;33;32635;-87
2021/12/28 08:04:11;;;;;;;;;;;9.10;99.90;;;;;;4262253;33;37537;-87
2021/12/28 08:06:49;;;;;;;;;;;9.10;99.90;;;;;;4263443;33;20011;-87
2021/12/28 08:09:25;;;;;;;;;;;9.10;99.90;;;;;;4263636;33;20074;-87
2021/12/28 08:11:55;;;;;;;;;;;9.10;99.90;;;;;;4275141;33;37912;-88
2021/12/28 08:14:27;;;;;;;;;;;9.10;99.90;;;;;;4274208;33;20010;-88
2021/12/28 08:16:57;;;;;;;;;;;9.10;99.90;;;;;;4262077;33;41909;-87
2021/12/28 08:19:27;;;;;;;;;;;9.10;99.90;;;;;;4273867;33;39908;-87
2021/12/28 08:21:57;;;;;;;;;;;9.10;99.90;;;;;;4273844;33;35765;-87
2021/12/28 08:24:29;;;;;;;;;;;9.10;99.90;;;;;;4274939;33;20007;-87
2021/12/28 08:26:59;;;;;;;;;;;9.10;99.90;;;;;;4274158;33;27762;-87
2021/12/28 08:29:29;;;;;;;;;;;9.10;99.90;;;;;;4274174;33;29471;-87
2021/12/28 08:32:01;;;;;;;;;;;9.10;99.90;;;;;;4262344;33;20003;-87
2021/12/28 08:34:32;;;;;;;;;;;9.10;99.90;;;;;;4273900;33;31270;-88
2021/12/28 08:37:02;;;;;;;;;;;9.10;99.90;;;;;;4274733;33;20015;-87
2021/12/28 08:39:29;;;;;;;;;;;9.20;99.90;;;;;;4273377;33;32999;-87
2021/12/28 08:41:56;;;;;;;;;;;9.20;99.90;;;;;;4274533;33;38789;-86
2021/12/28 08:44:27;;;;;;;;;;;9.20;99.90;;;;;;4261349;33;40534;-87
2021/12/28 08:46:54;;;;;;;;;;;9.20;99.90;;;;;;4274367;33;39764;-87
2021/12/28 08:49:22;;;;;;;;;;;9.20;99.90;;;;;;4261330;33;43836;-87
2021/12/28 08:51:49;;;;;;;;;;;9.20;99.90;;;;;;4273472;33;33315;-87
2021/12/28 08:54:16;;;;;;;;;;;9.20;99.90;;;;;;4273423;33;34936;-87
2021/12/28 08:56:45;;;;;;;;;;;9.20;99.90;;;;;;4273613;33;28258;-87
2021/12/28 08:59:13;;;;;;;;;;;9.20;99.90;;;;;;4262325;33;20019;-86
2021/12/28 09:01:42;;;;;;;;;;;9.30;99.90;;;;;;4273395;33;20691;-87
2021/12/28 09:04:09;;;;;;;;;;;9.20;99.90;;;;;;4274042;33;20011;-87
2021/12/28 09:06:36;;;;;;;;;;;9.30;99.90;;;;;;4274158;33;20078;-86
2021/12/28 09:09:04;;;;;;;;;;;9.30;99.90;;;;;;4261421;33;32921;-86
2021/12/28 09:11:34;;;;;;;;;;;9.20;99.90;;;;;;4274325;33;20022;-87
2021/12/28 09:14:01;;;;;;;;;;;9.30;99.90;;;;;;4273118;33;33423;-87
2021/12/28 09:16:28;;;;;;;;;;;9.30;99.90;;;;;;4261463;33;25133;-86
2021/12/28 09:18:56;;;;;;;;;;;9.30;99.90;;;;;;4272633;33;34138;-87
2021/12/28 09:21:23;;;;;;;;;;;9.30;99.90;;;;;;4273081;33;31733;-87
2021/12/28 09:23:50;;;;;;;;;;;9.30;99.90;;;;;;4272912;33;23806;-86
2021/12/28 09:26:37;;;;;;;;;;;9.30;99.90;;;;;;4274833;33;20014;-86
2021/12/28 09:29:04;;;;;;;;;;;9.30;99.90;;;;;;4260968;33;30819;-86
2021/12/28 09:31:33;;;;;;;;;;;9.30;99.90;;;;;;4273486;33;20037;-86
2021/12/28 09:34:00;;;;;;;;;;;9.30;99.90;;;;;;4274027;33;31954;-86
2021/12/28 09:36:47;;;;;;;;;;;9.30;99.90;;;;;;4273992;33;20014;-86
2021/12/28 09:39:15;;;;;;;;;;;9.40;99.90;;;;;;4273191;33;20122;-86
2021/12/28 09:41:42;;;;;;;;;;;9.40;99.90;;;;;;4273705;33;20014;-86
2021/12/28 09:44:13;;;;;;;;;;;9.40;99.90;;;;;;4261645;33;20087;-86
2021/12/28 09:46:41;;;;;;;;;;;9.40;99.90;;;;;;4273684;33;20014;-86
2021/12/28 09:49:09;;;;;;;;;;;9.40;99.90;;;;;;4274874;33;20017;-86
2021/12/28 09:51:36;;;;;;;;;;;9.40;99.90;;;;;;4273523;33;20078;-86
2021/12/28 09:54:05;;;;;;;;;;;9.40;99.90;;;;;;4261748;33;20006;-86
2021/12/28 09:56:39;;;;;;;;;;;9.40;99.90;;;;;;4261810;33;20391;-85
2021/12/28 09:59:09;;;;;;;;;;;9.40;99.90;;;;;;4274635;33;20400;-86
2021/12/28 10:01:36;;;;;;;;;;;9.40;99.90;;;;;;4261136;33;20026;-86
2021/12/28 10:04:04;;;;;;;;;;;9.40;99.90;;;;;;4272924;33;20015;-85
2021/12/28 10:06:32;;;;;;;;;;;9.50;99.90;;;;;;4273049;33;20029;-85
2021/12/28 10:09:06;;;;;;;;;;;9.50;99.90;;;;;;4261326;33;20375;-85
2021/12/28 10:11:38;;;;;;;;;;;9.50;99.90;;;;;;4272915;33;20020;-86
2021/12/28 10:14:12;;;;;;;;;;;9.50;99.90;;;;;;4261696;33;20073;-87
2021/12/28 10:16:48;;;;;;;;;;;9.50;99.90;;;;;;4273223;33;20017;-86
2021/12/28 10:19:32;;;;;;;;;;;9.50;99.90;;;;;;4260688;33;20159;-86
2021/12/28 10:22:18;;;;;;;;;;;9.50;99.90;;;;;;4261486;33;20380;-86
2021/12/28 10:24:49;;;;;;;;;;;9.50;99.90;;;;;;4272556;33;22251;-86
2021/12/28 10:27:17;;;;;;;;;;;9.50;99.90;;;;;;4273225;33;20007;-85
2021/12/28 10:29:47;;;;;;;;;;;9.60;99.90;;;;;;4273153;33;20017;-87
2021/12/28 10:32:23;;;;;;;;;;;9.60;99.90;;;;;;4272805;33;20081;-86
2021/12/28 10:34:51;;;;;;;;;;;9.60;99.90;;;;;;4273005;33;20023;-86
2021/12/28 10:37:23;;;;;;;;;;;9.60;99.90;;;;;;4272676;33;20003;-86
2021/12/28 10:39:51;;;;;;;;;;;9.60;99.90;;;;;;4273048;33;20055;-86
2021/12/28 10:42:47;;;;;;;;;;;9.60;99.90;;;;;;4273143;33;20016;-86
2021/12/28 10:45:26;;;;;;;;;;;9.60;99.90;;;;;;4273132;33;20361;-84
2021/12/28 10:47:57;;;;;;;;;;;9.70;99.90;;;;;;4260895;33;19999;-85
2021/12/28 10:50:33;;;;;;;;;;;9.70;99.90;;;;;;4272413;33;20015;-86
2021/12/28 10:53:14;;;;;;;;;;;9.70;99.90;;;;;;4272853;33;20009;-87
2021/12/28 10:55:42;;;;;;;;;;;9.70;99.90;;;;;;4272600;33;20041;-85
2021/12/28 10:58:18;;;;;;;;;;;9.70;99.90;;;;;;4260909;33;20011;-86
2021/12/28 11:00:46;;;;;;;;;;;9.70;99.90;;;;;;4274099;33;20070;-86
2021/12/28 11:03:16;;;;;;;;;;;9.70;99.90;;;;;;4272397;33;20010;-86
2021/12/28 11:05:45;;;;;;;;;;;9.70;99.90;;;;;;4273795;33;20007;-86
2021/12/28 11:08:12;;;;;;;;;;;9.70;99.90;;;;;;4274184;33;20058;-85
2021/12/28 11:10:42;;;;;;;;;;;9.70;99.90;;;;;;4260838;33;20010;-85
2021/12/28 11:13:13;;;;;;;;;;;9.70;99.90;;;;;;4272975;33;20025;-86
2021/12/28 11:15:45;;;;;;;;;;;9.70;99.90;;;;;;4273792;33;20015;-84
2021/12/28 11:18:16;;;;;;;;;;;9.80;99.90;;;;;;4273782;33;20061;-84
2021/12/28 11:20:46;;;;;;;;;;;9.80;99.90;;;;;;4261190;33;20000;-84
2021/12/28 11:23:15;;;;;;;;;;;9.80;99.90;;;;;;4273017;33;20421;-85
2021/12/28 11:25:43;;;;;;;;;;;9.70;99.90;;;;;;4273784;33;20022;-85
2021/12/28 11:28:14;;;;;;;;;;;9.70;99.90;;;;;;4273780;33;20015;-84
2021/12/28 11:31:01;;;;;;;;;;;9.70;99.90;;;;;;4275248;33;20418;-85
2021/12/28 11:33:42;;;;;;;;;;;9.70;99.90;;;;;;4275623;33;20058;-84
2021/12/28 11:36:10;;;;;;;;;;;9.70;99.90;;;;;;4275110;33;20160;-85
2021/12/28 11:38:37;;;;;;;;;;;9.70;99.90;;;;;;4275496;33;20401;-85
2021/12/28 11:41:05;;;;;;;;;;;9.60;99.90;;;;;;4263537;33;20009;-86
2021/12/28 11:43:36;;;;;;;;;;;9.60;99.90;;;;;;4275562;33;20080;-85
2021/12/28 11:46:09;;;;;;;;;;;9.60;99.90;;;;;;4275175;33;20021;-85
2021/12/28 11:48:37;;;;;;;;;;;9.60;99.90;;;;;;4263254;33;20344;-85
2021/12/28 11:51:06;;;;;;;;;;;9.60;99.90;;;;;;4263615;33;20010;-84
2021/12/28 11:53:35;;;;;;;;;;;9.60;99.90;;;;;;4263438;33;20014;-85
2021/12/28 11:56:06;;;;;;;;;;;9.60;99.90;;;;;;4263242;33;20068;-85
2021/12/28 11:58:52;;;;;;;;;;;9.60;99.90;;;;;;4276020;33;20020;-85
2021/12/28 12:01:39;;;;;;;;;;;9.50;99.90;;;;;;4276058;33;20017;-85
2021/12/28 12:04:31;;;;;;;;;;;9.50;99.90;;;;;;4272928;33;20030;-85
2021/12/28 12:07:01;;;;;;;;;;;9.50;99.90;;;;;;4290692;33;20388;-85
2021/12/28 12:09:33;;;;;;;;;;;9.50;99.90;;;;;;4277995;33;20020;-85
2021/12/28 12:12:16;;;;;;;;;;;9.50;99.90;;;;;;4277120;33;20018;-85
2021/12/28 12:14:51;;;;;;;;;;;9.50;99.90;;;;;;4289408;33;43245;-85
2021/12/28 12:17:30;;;;;;;;;;;9.50;99.90;;;;;;4289165;33;26291;-86
2021/12/28 12:19:59;;;;;;;;;;;9.50;99.90;;;;;;4276270;33;44271;-86
2021/12/28 12:22:29;;;;;;;;;;;9.50;99.90;;;;;;4276368;33;38129;-85
2021/12/28 12:24:57;;;;;;;;;;;9.40;99.90;;;;;;4289115;33;23231;-86
2021/12/28 12:27:43;;;;;;;;;;;9.50;99.90;;;;;;4276593;33;20018;-85
2021/12/28 12:30:23;;;;;;;;;;;9.40;99.90;;;;;;4264443;33;22059;-86
2021/12/28 12:32:56;;;;;;;;;;;9.40;99.90;;;;;;4276092;33;43358;-85
2021/12/28 12:35:30;;;;;;;;;;;9.40;99.90;;;;;;4276765;33;20006;-86
2021/12/28 12:38:26;;;;;;;;;;;9.40;99.90;;;;;;4277088;33;20025;-87
2021/12/28 12:40:55;;;;;;;;;;;9.40;99.90;;;;;;4275641;33;38376;-86
2021/12/28 12:43:22;;;;;;;;;;;9.40;99.90;;;;;;4289206;33;20054;-87
2021/12/28 12:45:50;;;;;;;;;;;9.40;99.90;;;;;;4265214;33;20339;-86
2021/12/28 12:48:29;;;;;;;;;;;9.40;99.90;;;;;;4277419;33;20014;-86
2021/12/28 12:51:15;;;;;;;;;;;9.40;99.90;;;;;;4289154;33;20018;-87
2021/12/28 12:53:46;;;;;;;;;;;9.40;99.90;;;;;;4264495;33;23883;-86
2021/12/28 12:56:14;;;;;;;;;;;9.40;99.90;;;;;;4264562;33;20006;-81
2021/12/28 12:58:45;;;;;;;;;;;9.30;99.90;;;;;;4289469;33;20026;-81
2021/12/28 13:01:35;;;;;;;;;;;9.30;99.90;;;;;;4276281;33;20018;-81
2021/12/28 13:04:04;;;;;;;;;;;9.20;99.90;;;;;;4275843;33;37799;-81
2021/12/28 13:06:40;;;;;;;;;;;9.20;99.90;;;;;;4288540;33;38079;-81
2021/12/28 13:09:10;;;;;;;;;;;9.20;99.90;;;;;;4288746;33;20325;-81
2021/12/28 13:11:38;;;;;;;;;;;9.20;99.90;;;;;;4289654;33;20016;-81
2021/12/28 13:14:05;;;;;;;;;;;9.30;99.90;;;;;;4275893;33;20372;-81
2021/12/28 13:16:33;;;;;;;;;;;9.30;99.90;;;;;;4264681;33;20054;-81
2021/12/28 13:19:06;;;;;;;;;;;9.30;99.90;;;;;;4264317;33;20050;-81
2021/12/28 13:21:33;;;;;;;;;;;9.20;99.90;;;;;;4276510;33;20068;-82
2021/12/28 13:24:11;;;;;;;;;;;9.30;99.90;;;;;;4275670;33;20368;-81
2021/12/28 13:26:45;;;;;;;;;;;9.30;99.90;;;;;;4276148;33;19995;-81
2021/12/28 13:29:22;;;;;;;;;;;9.30;99.90;;;;;;4288559;33;20002;-81
2021/12/28 13:31:49;;;;;;;;;;;9.30;99.90;;;;;;4288904;33;20408;-81
2021/12/28 13:34:19;;;;;;;;;;;9.20;99.90;;;;;;4289480;33;20089;-81
2021/12/28 13:36:55;;;;;;;;;;;9.20;99.90;;;;;;4275828;33;20475;-81
2021/12/28 13:39:22;;;;;;;;;;;9.20;99.90;;;;;;4288829;33;20040;-81
2021/12/28 13:41:53;;;;;;;;;;;9.30;99.90;;;;;;4275423;33;19994;-81
2021/12/28 13:44:20;;;;;;;;;;;9.30;99.90;;;;;;4276184;33;20003;-81
2021/12/28 13:46:47;;;;;;;;;;;9.30;99.90;;;;;;4274652;33;38374;-81
2021/12/28 13:49:15;;;;;;;;;;;9.30;99.90;;;;;;4274724;33;41643;-80
2021/12/28 13:51:42;;;;;;;;;;;9.30;99.90;;;;;;4274851;33;28330;-81
2021/12/28 13:54:09;;;;;;;;;;;9.20;99.90;;;;;;4273895;33;35940;-81
2021/12/28 13:56:38;;;;;;;;;;;9.30;99.90;;;;;;4275232;33;29709;-82
2021/12/28 13:59:06;;;;;;;;;;;9.20;99.90;;;;;;4275290;33;26938;-81
2021/12/28 14:01:39;;;;;;;;;;;9.30;99.90;;;;;;4274045;33;43864;-81
2021/12/28 14:04:08;;;;;;;;;;;9.20;99.90;;;;;;4287243;33;41917;-82
2021/12/28 14:06:36;;;;;;;;;;;9.20;99.90;;;;;;4274634;33;40449;-81
2021/12/28 14:09:05;;;;;;;;;;;9.30;99.90;;;;;;4274773;33;44294;-81
2021/12/28 14:11:32;;;;;;;;;;;9.30;99.90;;;;;;4288217;33;20045;-81
2021/12/28 14:14:02;;;;;;;;;;;9.20;99.90;;;;;;4275690;33;20006;-81
2021/12/28 14:16:32;;;;;;;;;;;9.20;99.90;;;;;;4288461;33;20066;-81
2021/12/28 14:19:02;;;;;;;;;;;9.30;99.90;;;;;;4275356;33;20014;-81
2021/12/28 14:21:30;;;;;;;;;;;9.20;99.90;;;;;;4263843;33;20400;-82
2021/12/28 14:24:09;;;;;;;;;;;9.20;99.90;;;;;;4275704;33;20085;-83
2021/12/28 14:26:41;;;;;;;;;;;9.20;99.90;;;;;;4275619;33;19998;-81
2021/12/28 14:29:15;;;;;;;;;;;9.20;99.90;;;;;;4288316;33;20017;-81
2021/12/28 14:31:50;;;;;;;;;;;9.20;99.90;;;;;;4275734;33;20010;-81
2021/12/28 14:34:29;;;;;;;;;;;9.20;99.90;;;;;;4287249;33;39411;-82
2021/12/28 14:37:00;;;;;;;;;;;9.30;99.90;;;;;;4275642;33;20006;-82
2021/12/28 14:39:33;;;;;;;;;;;9.30;99.90;;;;;;4275173;33;19998;-81
2021/12/28 14:42:08;;;;;;;;;;;9.30;99.90;;;;;;4275526;33;20494;-81
2021/12/28 14:44:36;;;;;;;;;;;9.30;99.90;;;;;;4288127;33;20002;-82
2021/12/28 14:47:19;;;;;;;;;;;9.20;99.90;;;;;;4287706;33;20015;-82
2021/12/28 14:49:47;;;;;;;;;;;9.30;99.90;;;;;;4262563;33;27517;-82
2021/12/28 14:52:33;;;;;;;;;;;9.30;99.90;;;;;;4286881;33;42090;-81
2021/12/28 14:55:09;;;;;;;;;;;9.20;99.90;;;;;;4262409;33;39157;-81
2021/12/28 14:57:42;;;;;;;;;;;9.30;99.90;;;;;;4274512;33;35699;-81